Savannah Hilton Head International Airport
KSAV : now visible

Airfield :











YOU CAN JOIN US ON...

 
LOGIN :

Register | Disclaimer

   EN    FR    IT 

 









Legend :    VFR   Marginal VFR   IFR   Intensive IFR   Very Intensive IFR
Visi :
Ceiling :
>= 8 km
>= 3000ft
5 to 8 km
1000 to 3000 ft
1500m to 5 km
500 to 1000 ft
800 to 1500m
200 to 500 ft
< 800m
< 200 ft
Symbols :   Thunderstorms  Fog  Heavy snow  Heavy precipitations  Wind > 20 kt







- Airport Elevation : 50 ft
- IATA code : SAV


KSAV - Savannah Hilton Head International

CURRENT METAR :
  • 182002Z COR 19014G19KT 10SM VCTS SCT060 SCT070 BKN085 BKN230 33/24 A3001 RMK AO2 LTG DSNT S TSB02 CB DSNT S-SW T03280244

EXPIRED METARs :
  • 181953Z 18010G15KT 10SM SCT060 SCT070 BKN085 BKN230 34/25 A3000 RMK AO2 LTG DSNT S SLP158 CB DSNT S-SW T03440250
  • 181853Z 14006KT 10SM SCT055 SCT065 BKN230 34/24 A3003 RMK AO2 SLP167 CB DSNT S T03440239
  • 181753Z 24009KT 210V280 10SM SCT049 SCT060 BKN230 34/23 A3004 RMK AO2 SLP172 T03390228 10356 20250 56010

TAF KSAV
Valid from the 18 at 20:00 until the 19 at 18:00 UTC


181937Z 1820/1918 20008KT P6SM VCTS SCT035CB BKN250
FM190200 22005KT P6SM BKN250
KZJX FIR / North America



MET'MAP, your aeronautical weather chart ! - Copyright ORBIFLY December 2007 - Disclaimer

ORBIFLY MET'MAP TEAM :

Programming & Development : Alexandra Zaïnal
Concept & Development : Baudouin d'Aumeries
Co-Development & Prog : Marc-Olivier Méhu
Technical & hardware support : Manuel Goepfert

Contact : metmap@orbifly.com




SOURCES & CREDITS :

   NOAA       Earth
Advisory